sensor_id;sensor_type;location;lat;lon;timestamp;pressure;altitude;pressure_sealevel;temperature;humidity
69751;BME280;57335;52.288;6.056;2022-07-04T00:02:13;102014.47;;;12.66;80.97
69751;BME280;57335;52.288;6.056;2022-07-04T00:04:39;102014.66;;;12.65;81.45
69751;BME280;57335;52.288;6.056;2022-07-04T00:07:06;102013.22;;;12.62;81.60
69751;BME280;57335;52.288;6.056;2022-07-04T00:09:32;102006.50;;;12.53;82.29
69751;BME280;57335;52.288;6.056;2022-07-04T00:11:59;102011.56;;;12.54;81.94
69751;BME280;57335;52.288;6.056;2022-07-04T00:14:25;102009.06;;;12.46;82.08
69751;BME280;57335;52.288;6.056;2022-07-04T00:16:52;102009.47;;;12.43;82.20
69751;BME280;57335;52.288;6.056;2022-07-04T00:19:18;102008.22;;;12.39;82.81
69751;BME280;57335;52.288;6.056;2022-07-04T00:21:45;102009.38;;;12.36;82.99
69751;BME280;57335;52.288;6.056;2022-07-04T00:24:11;102010.97;;;12.31;82.57
69751;BME280;57335;52.288;6.056;2022-07-04T00:26:38;102005.91;;;12.29;82.92
69751;BME280;57335;52.288;6.056;2022-07-04T00:29:04;102005.63;;;12.24;82.60
69751;BME280;57335;52.288;6.056;2022-07-04T00:31:31;102002.56;;;12.21;82.41
69751;BME280;57335;52.288;6.056;2022-07-04T00:33:58;102001.31;;;12.16;82.63
69751;BME280;57335;52.288;6.056;2022-07-04T00:36:24;102000.91;;;12.13;82.48
69751;BME280;57335;52.288;6.056;2022-07-04T00:38:51;102005.53;;;12.11;83.08
69751;BME280;57335;52.288;6.056;2022-07-04T00:41:17;102001.06;;;12.11;82.76
69751;BME280;57335;52.288;6.056;2022-07-04T00:43:59;102003.06;;;12.09;83.18
69751;BME280;57335;52.288;6.056;2022-07-04T00:46:37;101990.06;;;12.01;82.73
69751;BME280;57335;52.288;6.056;2022-07-04T00:49:05;102001.19;;;12.03;82.63
69751;BME280;57335;52.288;6.056;2022-07-04T00:51:33;102008.25;;;12.03;82.52
69751;BME280;57335;52.288;6.056;2022-07-04T00:53:59;102004.56;;;11.97;82.29
69751;BME280;57335;52.288;6.056;2022-07-04T00:56:26;102000.47;;;11.94;83.22
69751;BME280;57335;52.288;6.056;2022-07-04T00:58:53;102000.06;;;11.91;84.12
69751;BME280;57335;52.288;6.056;2022-07-04T01:01:20;102003.03;;;11.88;84.04
69751;BME280;57335;52.288;6.056;2022-07-04T01:03:47;101999.75;;;11.86;83.62
69751;BME280;57335;52.288;6.056;2022-07-04T01:06:14;101993.81;;;11.77;83.92
69751;BME280;57335;52.288;6.056;2022-07-04T01:08:42;102007.75;;;11.77;83.89
69751;BME280;57335;52.288;6.056;2022-07-04T01:11:09;101999.44;;;11.74;83.91
69751;BME280;57335;52.288;6.056;2022-07-04T01:13:36;101998.19;;;11.70;83.74
69751;BME280;57335;52.288;6.056;2022-07-04T01:16:03;102006.50;;;11.73;83.77
69751;BME280;57335;52.288;6.056;2022-07-04T01:18:30;102001.44;;;11.72;83.57
69751;BME280;57335;52.288;6.056;2022-07-04T01:20:57;102006.84;;;11.70;85.41
69751;BME280;57335;52.288;6.056;2022-07-04T01:23:23;102003.59;;;11.68;85.47
69751;BME280;57335;52.288;6.056;2022-07-04T01:25:50;101996.28;;;11.64;85.56
69751;BME280;57335;52.288;6.056;2022-07-04T01:28:21;101996.69;;;11.61;85.07
69751;BME280;57335;52.288;6.056;2022-07-04T01:30:48;101995.59;;;11.55;84.61
69751;BME280;57335;52.288;6.056;2022-07-04T01:33:15;101994.97;;;11.53;84.45
69751;BME280;57335;52.288;6.056;2022-07-04T01:35:42;101988.44;;;11.49;84.80
69751;BME280;57335;52.288;6.056;2022-07-04T01:38:08;101997.31;;;11.48;84.43
69751;BME280;57335;52.288;6.056;2022-07-04T01:40:35;101988.72;;;11.39;83.79
69751;BME280;57335;52.288;6.056;2022-07-04T01:43:02;101987.25;;;11.36;84.55
69751;BME280;57335;52.288;6.056;2022-07-04T01:45:28;101988.84;;;11.31;85.41
69751;BME280;57335;52.288;6.056;2022-07-04T01:47:55;101989.81;;;11.30;85.41
69751;BME280;57335;52.288;6.056;2022-07-04T01:50:21;101999.84;;;11.26;86.05
69751;BME280;57335;52.288;6.056;2022-07-04T01:52:48;101986.19;;;11.16;86.39
69751;BME280;57335;52.288;6.056;2022-07-04T01:55:14;101982.69;;;11.09;86.55
69751;BME280;57335;52.288;6.056;2022-07-04T01:57:41;101984.03;;;11.05;86.55
69751;BME280;57335;52.288;6.056;2022-07-04T02:00:09;101977.78;;;11.06;86.68
69751;BME280;57335;52.288;6.056;2022-07-04T02:02:36;101979.31;;;11.00;87.57
69751;BME280;57335;52.288;6.056;2022-07-04T02:05:03;101981.50;;;10.96;87.19
69751;BME280;57335;52.288;6.056;2022-07-04T02:07:30;101983.50;;;10.94;87.34
69751;BME280;57335;52.288;6.056;2022-07-04T02:09:57;101984.66;;;10.92;87.25
69751;BME280;57335;52.288;6.056;2022-07-04T02:12:23;101980.41;;;10.91;87.82
69751;BME280;57335;52.288;6.056;2022-07-04T02:14:50;101977.34;;;10.87;87.62
69751;BME280;57335;52.288;6.056;2022-07-04T02:17:16;101981.94;;;10.85;87.06
69751;BME280;57335;52.288;6.056;2022-07-04T02:19:43;101978.69;;;10.83;87.14
69751;BME280;57335;52.288;6.056;2022-07-04T02:22:10;101976.69;;;10.85;87.06
69751;BME280;57335;52.288;6.056;2022-07-04T02:24:36;101975.69;;;10.86;88.54
69751;BME280;57335;52.288;6.056;2022-07-04T02:27:03;101971.28;;;10.87;89.61
69751;BME280;57335;52.288;6.056;2022-07-04T02:29:29;101977.16;;;10.89;89.55
69751;BME280;57335;52.288;6.056;2022-07-04T02:31:56;101973.06;;;10.86;88.79
69751;BME280;57335;52.288;6.056;2022-07-04T02:34:23;101969.09;;;10.90;88.98
69751;BME280;57335;52.288;6.056;2022-07-04T02:36:49;101961.59;;;10.87;88.96
69751;BME280;57335;52.288;6.056;2022-07-04T02:39:16;101963.59;;;10.85;89.60
69751;BME280;57335;52.288;6.056;2022-07-04T02:41:42;101968.13;;;10.91;89.60
69751;BME280;57335;52.288;6.056;2022-07-04T02:44:09;101969.72;;;10.92;89.41
69751;BME280;57335;52.288;6.056;2022-07-04T02:46:36;101966.47;;;10.90;89.83
69751;BME280;57335;52.288;6.056;2022-07-04T02:49:03;101975.34;;;10.89;89.49
69751;BME280;57335;52.288;6.056;2022-07-04T02:51:30;101973.06;;;10.86;89.22
69751;BME280;57335;52.288;6.056;2022-07-04T02:53:57;101963.94;;;10.82;88.23
69751;BME280;57335;52.288;6.056;2022-07-04T02:56:23;101970.53;;;10.78;87.81
69751;BME280;57335;52.288;6.056;2022-07-04T02:58:50;101968.28;;;10.75;87.44
69751;BME280;57335;52.288;6.056;2022-07-04T03:01:17;101971.72;;;10.75;87.02
69751;BME280;57335;52.288;6.056;2022-07-04T03:03:43;101969.25;;;10.74;87.07
69751;BME280;57335;52.288;6.056;2022-07-04T03:06:10;101969.09;;;10.75;87.27
69751;BME280;57335;52.288;6.056;2022-07-04T03:08:37;101977.97;;;10.74;87.35
69751;BME280;57335;52.288;6.056;2022-07-04T03:11:04;101968.38;;;10.67;87.20
69751;BME280;57335;52.288;6.056;2022-07-04T03:13:31;101971.41;;;10.70;87.27
69751;BME280;57335;52.288;6.056;2022-07-04T03:15:57;101977.84;;;10.68;87.90
69751;BME280;57335;52.288;6.056;2022-07-04T03:18:24;101971.69;;;10.61;89.18
69751;BME280;57335;52.288;6.056;2022-07-04T03:20:50;101988.88;;;10.63;88.35
69751;BME280;57335;52.288;6.056;2022-07-04T03:23:17;101972.41;;;10.54;88.35
69751;BME280;57335;52.288;6.056;2022-07-04T03:25:43;101972.59;;;10.53;88.86
69751;BME280;57335;52.288;6.056;2022-07-04T03:28:10;101973.06;;;10.56;89.21
69751;BME280;57335;52.288;6.056;2022-07-04T03:30:36;101980.06;;;10.56;89.32
69751;BME280;57335;52.288;6.056;2022-07-04T03:33:03;101964.25;;;10.49;89.85
69751;BME280;57335;52.288;6.056;2022-07-04T03:35:30;101980.63;;;10.51;89.22
69751;BME280;57335;52.288;6.056;2022-07-04T03:37:57;101972.94;;;10.50;89.00
69751;BME280;57335;52.288;6.056;2022-07-04T03:40:23;101985.56;;;10.46;89.25
69751;BME280;57335;52.288;6.056;2022-07-04T03:42:50;101982.94;;;10.46;89.30
69751;BME280;57335;52.288;6.056;2022-07-04T03:45:17;101981.50;;;10.44;89.52
69751;BME280;57335;52.288;6.056;2022-07-04T03:47:43;101978.59;;;10.38;89.75
69751;BME280;57335;52.288;6.056;2022-07-04T03:50:10;101995.78;;;10.41;90.14
69751;BME280;57335;52.288;6.056;2022-07-04T03:52:36;101997.59;;;10.41;90.19
69751;BME280;57335;52.288;6.056;2022-07-04T03:55:03;102001.03;;;10.41;90.50
69751;BME280;57335;52.288;6.056;2022-07-04T03:57:29;102008.72;;;10.43;90.39
69751;BME280;57335;52.288;6.056;2022-07-04T03:59:56;102005.91;;;10.44;90.63
69751;BME280;57335;52.288;6.056;2022-07-04T04:02:22;102004.28;;;10.43;90.79
69751;BME280;57335;52.288;6.056;2022-07-04T04:04:49;102002.75;;;10.49;91.09
69751;BME280;57335;52.288;6.056;2022-07-04T04:07:16;102006.84;;;10.51;92.37
69751;BME280;57335;52.288;6.056;2022-07-04T04:09:42;102008.28;;;10.54;91.05
69751;BME280;57335;52.288;6.056;2022-07-04T04:12:09;102013.97;;;10.57;91.13
69751;BME280;57335;52.288;6.056;2022-07-04T04:14:35;102010.19;;;10.60;91.86
69751;BME280;57335;52.288;6.056;2022-07-04T04:17:02;102003.78;;;10.63;94.22
69751;BME280;57335;52.288;6.056;2022-07-04T04:19:29;102023.19;;;10.76;95.95
69751;BME280;57335;52.288;6.056;2022-07-04T04:21:55;102020.00;;;10.81;97.27
69751;BME280;57335;52.288;6.056;2022-07-04T04:24:22;102025.09;;;10.97;98.40
69751;BME280;57335;52.288;6.056;2022-07-04T04:26:49;102025.81;;;11.06;97.55
69751;BME280;57335;52.288;6.056;2022-07-04T04:29:15;102031.72;;;11.23;97.84
69751;BME280;57335;52.288;6.056;2022-07-04T04:35:25;102026.63;;;11.51;97.34
69751;BME280;57335;52.288;6.056;2022-07-04T04:37:52;102028.34;;;11.59;97.40
69751;BME280;57335;52.288;6.056;2022-07-04T04:40:18;102037.00;;;11.74;96.77
69751;BME280;57335;52.288;6.056;2022-07-04T04:42:45;102026.41;;;11.83;96.61
69751;BME280;57335;52.288;6.056;2022-07-04T04:45:11;102015.63;;;11.92;96.27
69751;BME280;57335;52.288;6.056;2022-07-04T04:47:38;102017.16;;;12.02;95.78
69751;BME280;57335;52.288;6.056;2022-07-04T04:50:05;102016.84;;;12.11;95.91
69751;BME280;57335;52.288;6.056;2022-07-04T04:52:31;102019.22;;;12.28;95.13
69751;BME280;57335;52.288;6.056;2022-07-04T04:54:59;102019.56;;;12.46;95.25
69751;BME280;57335;52.288;6.056;2022-07-04T04:57:25;102016.44;;;12.86;93.66
69751;BME280;57335;52.288;6.056;2022-07-04T04:59:52;102022.69;;;13.41;90.84
69751;BME280;57335;52.288;6.056;2022-07-04T05:02:21;102013.53;;;13.92;88.05
69751;BME280;57335;52.288;6.056;2022-07-04T05:04:47;102025.13;;;14.24;85.89
69751;BME280;57335;52.288;6.056;2022-07-04T05:07:14;102016.44;;;14.44;85.59
69751;BME280;57335;52.288;6.056;2022-07-04T05:09:40;102028.03;;;14.56;84.63
69751;BME280;57335;52.288;6.056;2022-07-04T05:12:07;102018.91;;;14.72;84.58
69751;BME280;57335;52.288;6.056;2022-07-04T05:14:33;102031.81;;;15.07;83.20
69751;BME280;57335;52.288;6.056;2022-07-04T05:17:00;102023.75;;;15.60;82.30
69751;BME280;57335;52.288;6.056;2022-07-04T05:19:27;102025.97;;;16.33;78.93
69751;BME280;57335;52.288;6.056;2022-07-04T05:21:53;102029.59;;;16.89;74.46
69751;BME280;57335;52.288;6.056;2022-07-04T05:24:20;102024.44;;;17.31;73.97
69751;BME280;57335;52.288;6.056;2022-07-04T05:26:46;102023.19;;;17.83;71.48
69751;BME280;57335;52.288;6.056;2022-07-04T05:29:13;102031.44;;;18.35;69.13
69751;BME280;57335;52.288;6.056;2022-07-04T05:31:39;102032.22;;;19.18;67.76
69751;BME280;57335;52.288;6.056;2022-07-04T05:34:06;102029.94;;;19.91;64.07
69751;BME280;57335;52.288;6.056;2022-07-04T05:36:33;102023.28;;;20.73;65.33
69751;BME280;57335;52.288;6.056;2022-07-04T05:38:59;102035.09;;;21.70;63.72
69751;BME280;57335;52.288;6.056;2022-07-04T05:41:25;102033.19;;;22.58;58.64
69751;BME280;57335;52.288;6.056;2022-07-04T05:43:52;102040.81;;;23.39;58.46
69751;BME280;57335;52.288;6.056;2022-07-04T05:46:23;102043.91;;;24.15;55.62
69751;BME280;57335;52.288;6.056;2022-07-04T05:48:50;102041.97;;;24.82;52.44
69751;BME280;57335;52.288;6.056;2022-07-04T05:51:17;102044.19;;;25.35;51.37
69751;BME280;57335;52.288;6.056;2022-07-04T05:53:43;102054.81;;;25.95;50.35
69751;BME280;57335;52.288;6.056;2022-07-04T05:56:10;102050.78;;;26.56;49.43
69751;BME280;57335;52.288;6.056;2022-07-04T05:58:36;102059.09;;;27.08;47.09
69751;BME280;57335;52.288;6.056;2022-07-04T06:01:03;102051.53;;;27.53;45.38
69751;BME280;57335;52.288;6.056;2022-07-04T06:03:30;102042.56;;;27.95;45.69
69751;BME280;57335;52.288;6.056;2022-07-04T06:05:56;102051.53;;;28.37;42.53
69751;BME280;57335;52.288;6.056;2022-07-04T06:08:23;102051.22;;;28.25;42.65
69751;BME280;57335;52.288;6.056;2022-07-04T06:10:49;102046.56;;;27.60;44.83
69751;BME280;57335;52.288;6.056;2022-07-04T06:13:16;102036.81;;;26.83;45.13
69751;BME280;57335;52.288;6.056;2022-07-04T06:15:43;102045.63;;;26.89;46.52
69751;BME280;57335;52.288;6.056;2022-07-04T06:18:09;102042.03;;;27.17;44.36
69751;BME280;57335;52.288;6.056;2022-07-04T06:20:36;102043.03;;;27.64;44.88
69751;BME280;57335;52.288;6.056;2022-07-04T06:23:03;102051.91;;;28.17;44.47
69751;BME280;57335;52.288;6.056;2022-07-04T06:25:29;102050.09;;;28.59;45.11
69751;BME280;57335;52.288;6.056;2022-07-04T06:27:56;102043.50;;;28.93;43.68
69751;BME280;57335;52.288;6.056;2022-07-04T06:30:22;102037.19;;;29.25;43.23
69751;BME280;57335;52.288;6.056;2022-07-04T06:32:50;102039.16;;;29.56;42.13
69751;BME280;57335;52.288;6.056;2022-07-04T06:35:23;102049.69;;;30.02;42.36
69751;BME280;57335;52.288;6.056;2022-07-04T06:37:50;102045.16;;;30.20;40.34
69751;BME280;57335;52.288;6.056;2022-07-04T06:40:16;102039.91;;;29.93;41.96
69751;BME280;57335;52.288;6.056;2022-07-04T06:42:43;102043.75;;;29.33;41.62
69751;BME280;57335;52.288;6.056;2022-07-04T06:45:09;102043.00;;;28.63;44.10
69751;BME280;57335;52.288;6.056;2022-07-04T06:47:37;102043.53;;;28.32;44.76
69751;BME280;57335;52.288;6.056;2022-07-04T06:50:04;102036.06;;;28.29;45.56
69751;BME280;57335;52.288;6.056;2022-07-04T06:52:50;102033.50;;;28.05;44.19
69751;BME280;57335;52.288;6.056;2022-07-04T06:55:17;102017.69;;;27.65;45.17
69751;BME280;57335;52.288;6.056;2022-07-04T06:57:51;102031.22;;;27.22;46.19
69751;BME280;57335;52.288;6.056;2022-07-04T07:00:18;102030.16;;;26.99;47.50
69751;BME280;57335;52.288;6.056;2022-07-04T07:02:45;102027.56;;;27.13;46.84
69751;BME280;57335;52.288;6.056;2022-07-04T07:05:11;102041.56;;;27.53;46.76
69751;BME280;57335;52.288;6.056;2022-07-04T07:07:38;102040.91;;;27.80;45.84
69751;BME280;57335;52.288;6.056;2022-07-04T07:10:05;102036.06;;;27.96;46.04
69751;BME280;57335;52.288;6.056;2022-07-04T07:12:33;102033.00;;;28.03;45.91
69751;BME280;57335;52.288;6.056;2022-07-04T07:15:00;102040.66;;;27.96;45.71
69751;BME280;57335;52.288;6.056;2022-07-04T07:17:27;102034.34;;;27.68;46.18
69751;BME280;57335;52.288;6.056;2022-07-04T07:19:54;102037.19;;;27.57;46.92
69751;BME280;57335;52.288;6.056;2022-07-04T07:22:21;102030.44;;;27.41;46.25
69751;BME280;57335;52.288;6.056;2022-07-04T07:24:48;102035.06;;;27.16;46.52
69751;BME280;57335;52.288;6.056;2022-07-04T07:27:14;102034.34;;;26.86;47.38
69751;BME280;57335;52.288;6.056;2022-07-04T07:29:41;102023.53;;;26.67;48.66
69751;BME280;57335;52.288;6.056;2022-07-04T07:32:08;102022.34;;;26.79;47.20
69751;BME280;57335;52.288;6.056;2022-07-04T07:34:35;102021.72;;;26.63;47.66
69751;BME280;57335;52.288;6.056;2022-07-04T07:37:01;102019.63;;;26.55;48.40
69751;BME280;57335;52.288;6.056;2022-07-04T07:39:28;102017.69;;;26.84;48.37
69751;BME280;57335;52.288;6.056;2022-07-04T07:41:54;102017.31;;;27.34;47.78
69751;BME280;57335;52.288;6.056;2022-07-04T07:44:21;102029.88;;;27.96;46.36
69751;BME280;57335;52.288;6.056;2022-07-04T07:46:47;102027.66;;;28.44;45.14
69751;BME280;57335;52.288;6.056;2022-07-04T07:49:14;102027.53;;;28.55;44.60
69751;BME280;57335;52.288;6.056;2022-07-04T07:51:40;102029.03;;;28.75;43.41
69751;BME280;57335;52.288;6.056;2022-07-04T07:54:07;102030.81;;;28.79;43.48
69751;BME280;57335;52.288;6.056;2022-07-04T07:56:44;102025.41;;;28.79;44.37
69751;BME280;57335;52.288;6.056;2022-07-04T07:59:10;102024.69;;;29.15;43.73
69751;BME280;57335;52.288;6.056;2022-07-04T08:01:37;102030.38;;;29.28;41.94
69751;BME280;57335;52.288;6.056;2022-07-04T08:04:04;102037.25;;;29.34;42.66
69751;BME280;57335;52.288;6.056;2022-07-04T08:06:32;102031.00;;;29.47;42.94
69751;BME280;57335;52.288;6.056;2022-07-04T08:09:00;102044.09;;;29.54;41.63
69751;BME280;57335;52.288;6.056;2022-07-04T08:11:26;102037.00;;;29.67;42.18
69751;BME280;57335;52.288;6.056;2022-07-04T08:13:53;102040.50;;;30.12;41.36
69751;BME280;57335;52.288;6.056;2022-07-04T08:16:20;102037.72;;;30.26;39.38
69751;BME280;57335;52.288;6.056;2022-07-04T08:19:06;102051.22;;;30.17;40.74
69751;BME280;57335;52.288;6.056;2022-07-04T08:21:33;102048.50;;;29.95;41.28
69751;BME280;57335;52.288;6.056;2022-07-04T08:24:21;102046.63;;;29.36;41.42
69751;BME280;57335;52.288;6.056;2022-07-04T08:26:48;102042.09;;;28.95;42.45
69751;BME280;57335;52.288;6.056;2022-07-04T08:29:15;102045.00;;;28.71;42.37
69751;BME280;57335;52.288;6.056;2022-07-04T08:31:41;102037.81;;;28.53;44.24
69751;BME280;57335;52.288;6.056;2022-07-04T08:34:17;102039.81;;;28.61;42.24
69751;BME280;57335;52.288;6.056;2022-07-04T08:36:44;102034.41;;;28.61;43.57
69751;BME280;57335;52.288;6.056;2022-07-04T08:39:11;102037.78;;;28.67;44.32
69751;BME280;57335;52.288;6.056;2022-07-04T08:41:39;102038.41;;;28.77;44.32
69751;BME280;57335;52.288;6.056;2022-07-04T08:44:07;102042.06;;;29.09;43.19
69751;BME280;57335;52.288;6.056;2022-07-04T08:46:35;102046.19;;;29.57;43.00
69751;BME280;57335;52.288;6.056;2022-07-04T08:49:23;102045.88;;;30.03;39.63
69751;BME280;57335;52.288;6.056;2022-07-04T08:52:03;102048.06;;;30.24;38.85
69751;BME280;57335;52.288;6.056;2022-07-04T08:54:32;102044.69;;;30.50;39.55
69751;BME280;57335;52.288;6.056;2022-07-04T08:56:59;102042.38;;;30.66;38.12
69751;BME280;57335;52.288;6.056;2022-07-04T08:59:26;102045.78;;;30.49;37.30
69751;BME280;57335;52.288;6.056;2022-07-04T09:01:54;102047.94;;;30.29;37.39
69751;BME280;57335;52.288;6.056;2022-07-04T09:04:22;102050.91;;;29.96;38.44
69751;BME280;57335;52.288;6.056;2022-07-04T09:06:49;102053.88;;;29.86;40.48
69751;BME280;57335;52.288;6.056;2022-07-04T09:09:17;102055.66;;;29.91;40.88
69751;BME280;57335;52.288;6.056;2022-07-04T09:11:44;102045.50;;;29.96;39.79
69751;BME280;57335;52.288;6.056;2022-07-04T09:14:10;102049.06;;;30.06;40.21
69751;BME280;57335;52.288;6.056;2022-07-04T09:16:39;102043.31;;;29.98;38.40
69751;BME280;57335;52.288;6.056;2022-07-04T09:19:22;102050.34;;;29.77;38.88
69751;BME280;57335;52.288;6.056;2022-07-04T09:21:49;102044.38;;;29.52;40.19
69751;BME280;57335;52.288;6.056;2022-07-04T09:24:16;102042.91;;;29.46;39.35
69751;BME280;57335;52.288;6.056;2022-07-04T09:26:46;102036.91;;;29.49;40.12
69751;BME280;57335;52.288;6.056;2022-07-04T09:29:13;102044.09;;;29.76;39.81
69751;BME280;57335;52.288;6.056;2022-07-04T09:31:40;102035.94;;;29.90;38.13
69751;BME280;57335;52.288;6.056;2022-07-04T09:34:07;102033.88;;;29.87;38.45
69751;BME280;57335;52.288;6.056;2022-07-04T09:36:43;102038.28;;;29.83;37.70
69751;BME280;57335;52.288;6.056;2022-07-04T09:39:14;102036.00;;;29.76;38.18
69751;BME280;57335;52.288;6.056;2022-07-04T09:42:01;102039.06;;;29.61;37.00
69751;BME280;57335;52.288;6.056;2022-07-04T09:44:47;102050.34;;;29.27;38.31
69751;BME280;57335;52.288;6.056;2022-07-04T09:47:22;102056.31;;;28.73;39.48
69751;BME280;57335;52.288;6.056;2022-07-04T09:50:07;102059.09;;;28.21;39.76
69751;BME280;57335;52.288;6.056;2022-07-04T09:52:47;102059.22;;;27.78;40.75
69751;BME280;57335;52.288;6.056;2022-07-04T09:55:24;102062.00;;;27.54;42.05
69751;BME280;57335;52.288;6.056;2022-07-04T09:57:51;102057.19;;;27.32;42.35
69751;BME280;57335;52.288;6.056;2022-07-04T10:00:30;102047.41;;;27.17;45.92
69751;BME280;57335;52.288;6.056;2022-07-04T10:03:24;102055.09;;;27.48;44.46
69751;BME280;57335;52.288;6.056;2022-07-04T10:06:08;102043.75;;;27.51;42.57
69751;BME280;57335;52.288;6.056;2022-07-04T10:08:35;102050.38;;;27.40;42.94
69751;BME280;57335;52.288;6.056;2022-07-04T10:11:03;102051.78;;;27.13;42.44
69751;BME280;57335;52.288;6.056;2022-07-04T10:13:35;102043.72;;;26.89;44.48
69751;BME280;57335;52.288;6.056;2022-07-04T10:16:02;102043.88;;;26.98;44.27
69751;BME280;57335;52.288;6.056;2022-07-04T10:18:29;102038.38;;;27.08;44.02
69751;BME280;57335;52.288;6.056;2022-07-04T10:20:56;102023.94;;;27.23;42.94
69751;BME280;57335;52.288;6.056;2022-07-04T10:23:24;102036.75;;;27.50;45.54
69751;BME280;57335;52.288;6.056;2022-07-04T10:25:52;102031.06;;;27.71;43.46
69751;BME280;57335;52.288;6.056;2022-07-04T10:28:19;102027.38;;;27.67;43.12
69751;BME280;57335;52.288;6.056;2022-07-04T10:30:49;102026.88;;;27.45;43.15
69751;BME280;57335;52.288;6.056;2022-07-04T10:33:22;102028.97;;;27.30;43.36
69751;BME280;57335;52.288;6.056;2022-07-04T10:36:00;102026.47;;;27.14;41.32
69751;BME280;57335;52.288;6.056;2022-07-04T10:41:03;102021.16;;;27.09;43.21
69751;BME280;57335;52.288;6.056;2022-07-04T10:51:41;102026.88;;;27.27;42.69
69751;BME280;57335;52.288;6.056;2022-07-04T10:54:09;102018.47;;;27.09;42.75
69751;BME280;57335;52.288;6.056;2022-07-04T10:59:23;102019.41;;;26.75;40.38
69751;BME280;57335;52.288;6.056;2022-07-04T11:05:12;102017.31;;;26.14;40.62
69751;BME280;57335;52.288;6.056;2022-07-04T11:20:25;102009.47;;;25.88;44.25
69751;BME280;57335;52.288;6.056;2022-07-04T11:23:10;102008.84;;;26.31;45.03
69751;BME280;57335;52.288;6.056;2022-07-04T11:25:39;102025.41;;;26.67;42.89
69751;BME280;57335;52.288;6.056;2022-07-04T11:28:29;102013.25;;;26.75;40.36
69751;BME280;57335;52.288;6.056;2022-07-04T11:31:12;102018.22;;;26.62;41.27
69751;BME280;57335;52.288;6.056;2022-07-04T11:33:40;102009.78;;;26.45;39.77
69751;BME280;57335;52.288;6.056;2022-07-04T11:36:14;102014.50;;;26.29;40.58
69751;BME280;57335;52.288;6.056;2022-07-04T11:41:17;101997.91;;;26.46;42.09
69751;BME280;57335;52.288;6.056;2022-07-04T11:43:44;102004.38;;;26.74;42.68
69751;BME280;57335;52.288;6.056;2022-07-04T11:46:11;101987.97;;;26.95;40.58
69751;BME280;57335;52.288;6.056;2022-07-04T11:48:38;102004.25;;;27.28;40.65
69751;BME280;57335;52.288;6.056;2022-07-04T11:51:16;102002.47;;;27.56;40.74
69751;BME280;57335;52.288;6.056;2022-07-04T11:53:43;102010.44;;;27.80;39.35
69751;BME280;57335;52.288;6.056;2022-07-04T11:56:09;102000.50;;;27.80;39.22
69751;BME280;57335;52.288;6.056;2022-07-04T11:58:43;101993.44;;;27.65;37.67
69751;BME280;57335;52.288;6.056;2022-07-04T12:01:09;101998.59;;;27.62;38.74
69751;BME280;57335;52.288;6.056;2022-07-04T12:03:36;101996.81;;;27.57;38.46
69751;BME280;57335;52.288;6.056;2022-07-04T12:06:04;101983.47;;;27.66;38.82
69751;BME280;57335;52.288;6.056;2022-07-04T12:08:30;102001.56;;;27.79;37.14
69751;BME280;57335;52.288;6.056;2022-07-04T12:10:57;101998.81;;;27.65;36.57
69751;BME280;57335;52.288;6.056;2022-07-04T12:13:24;101997.97;;;27.51;37.95
69751;BME280;57335;52.288;6.056;2022-07-04T12:15:51;101983.41;;;27.52;38.92
69751;BME280;57335;52.288;6.056;2022-07-04T12:18:29;101973.03;;;27.45;37.10
69751;BME280;57335;52.288;6.056;2022-07-04T12:21:11;101974.38;;;27.62;39.63
69751;BME280;57335;52.288;6.056;2022-07-04T12:23:38;101969.53;;;27.78;39.31
69751;BME280;57335;52.288;6.056;2022-07-04T12:26:25;101974.34;;;27.81;38.44
69751;BME280;57335;52.288;6.056;2022-07-04T12:28:52;101976.72;;;27.69;38.06
69751;BME280;57335;52.288;6.056;2022-07-04T12:31:18;101972.50;;;27.76;39.28
69751;BME280;57335;52.288;6.056;2022-07-04T12:33:55;101974.69;;;27.93;37.85
69751;BME280;57335;52.288;6.056;2022-07-04T12:36:21;101975.72;;;28.11;37.63
69751;BME280;57335;52.288;6.056;2022-07-04T12:38:49;101971.63;;;28.14;36.70
69751;BME280;57335;52.288;6.056;2022-07-04T12:41:16;101967.53;;;28.30;38.61
69751;BME280;57335;52.288;6.056;2022-07-04T12:43:45;101973.84;;;28.39;37.13
69751;BME280;57335;52.288;6.056;2022-07-04T12:46:30;101980.03;;;28.26;37.04
69751;BME280;57335;52.288;6.056;2022-07-04T12:48:58;101968.34;;;28.03;36.84
69751;BME280;57335;52.288;6.056;2022-07-04T12:51:33;101970.63;;;28.10;36.84
69751;BME280;57335;52.288;6.056;2022-07-04T12:54:08;101978.97;;;27.94;35.06
69751;BME280;57335;52.288;6.056;2022-07-04T12:56:37;101969.31;;;27.74;36.53
69751;BME280;57335;52.288;6.056;2022-07-04T12:59:08;101972.69;;;27.66;37.52
69751;BME280;57335;52.288;6.056;2022-07-04T13:01:39;101977.38;;;27.60;37.90
69751;BME280;57335;52.288;6.056;2022-07-04T13:04:06;101976.38;;;27.70;37.70
69751;BME280;57335;52.288;6.056;2022-07-04T13:06:33;101959.88;;;27.77;38.07
69751;BME280;57335;52.288;6.056;2022-07-04T13:09:01;101965.22;;;27.96;37.31
69751;BME280;57335;52.288;6.056;2022-07-04T13:11:28;101969.81;;;27.62;37.17
69751;BME280;57335;52.288;6.056;2022-07-04T13:13:55;101967.41;;;27.42;37.84
69751;BME280;57335;52.288;6.056;2022-07-04T13:16:21;101962.34;;;27.40;38.62
69751;BME280;57335;52.288;6.056;2022-07-04T13:18:48;101959.47;;;27.13;37.05
69751;BME280;57335;52.288;6.056;2022-07-04T13:21:15;101964.59;;;27.33;38.97
69751;BME280;57335;52.288;6.056;2022-07-04T13:23:42;101960.16;;;27.42;37.83
69751;BME280;57335;52.288;6.056;2022-07-04T13:26:09;101968.88;;;27.53;37.06
69751;BME280;57335;52.288;6.056;2022-07-04T13:28:36;101971.16;;;27.60;37.80
69751;BME280;57335;52.288;6.056;2022-07-04T13:31:03;101965.22;;;27.44;35.96
69751;BME280;57335;52.288;6.056;2022-07-04T13:33:30;101974.31;;;27.48;37.56